sensor_id;sensor_type;location;lat;lon;timestamp;temperature;humidity
46676;DHT22;32412;51.478;5.694;2022-07-18T00:00:05;16.40;99.90
46676;DHT22;32412;51.478;5.694;2022-07-18T00:02:33;16.40;99.90
46676;DHT22;32412;51.478;5.694;2022-07-18T00:04:59;16.40;99.90
46676;DHT22;32412;51.478;5.694;2022-07-18T00:07:25;16.40;99.90
46676;DHT22;32412;51.478;5.694;2022-07-18T00:09:51;16.40;99.90
46676;DHT22;32412;51.478;5.694;2022-07-18T00:12:17;16.30;99.90
46676;DHT22;32412;51.478;5.694;2022-07-18T00:14:43;16.20;99.90
46676;DHT22;32412;51.478;5.694;2022-07-18T00:17:09;16.20;99.90
46676;DHT22;32412;51.478;5.694;2022-07-18T00:19:35;16.10;99.90
46676;DHT22;32412;51.478;5.694;2022-07-18T00:22:01;16.10;99.90
46676;DHT22;32412;51.478;5.694;2022-07-18T00:24:27;16.10;99.90
46676;DHT22;32412;51.478;5.694;2022-07-18T00:26:54;16.10;99.90
46676;DHT22;32412;51.478;5.694;2022-07-18T00:29:22;16.10;99.90
46676;DHT22;32412;51.478;5.694;2022-07-18T00:31:52;16.10;99.90
46676;DHT22;32412;51.478;5.694;2022-07-18T00:34:21;16.00;99.90
46676;DHT22;32412;51.478;5.694;2022-07-18T00:36:46;16.00;99.90
46676;DHT22;32412;51.478;5.694;2022-07-18T00:39:12;16.00;99.90
46676;DHT22;32412;51.478;5.694;2022-07-18T00:41:37;16.00;99.90
46676;DHT22;32412;51.478;5.694;2022-07-18T00:44:03;16.00;99.90
46676;DHT22;32412;51.478;5.694;2022-07-18T00:46:29;16.00;99.90
46676;DHT22;32412;51.478;5.694;2022-07-18T00:48:55;15.90;99.90
46676;DHT22;32412;51.478;5.694;2022-07-18T00:51:21;16.00;99.90
46676;DHT22;32412;51.478;5.694;2022-07-18T00:53:48;15.90;99.90
46676;DHT22;32412;51.478;5.694;2022-07-18T00:56:19;15.90;99.90
46676;DHT22;32412;51.478;5.694;2022-07-18T00:58:45;15.80;99.90
46676;DHT22;32412;51.478;5.694;2022-07-18T01:01:12;15.80;99.90
46676;DHT22;32412;51.478;5.694;2022-07-18T01:03:56;15.80;99.90
46676;DHT22;32412;51.478;5.694;2022-07-18T01:06:22;15.80;99.90
46676;DHT22;32412;51.478;5.694;2022-07-18T01:08:48;15.70;99.90
46676;DHT22;32412;51.478;5.694;2022-07-18T01:11:13;15.60;99.90
46676;DHT22;32412;51.478;5.694;2022-07-18T01:13:40;15.60;99.90
46676;DHT22;32412;51.478;5.694;2022-07-18T01:16:06;15.50;99.90
46676;DHT22;32412;51.478;5.694;2022-07-18T01:18:32;15.40;99.90
46676;DHT22;32412;51.478;5.694;2022-07-18T01:20:58;15.40;99.90
46676;DHT22;32412;51.478;5.694;2022-07-18T01:23:23;15.40;99.90
46676;DHT22;32412;51.478;5.694;2022-07-18T01:25:50;15.30;99.90
46676;DHT22;32412;51.478;5.694;2022-07-18T01:28:15;15.30;99.90
46676;DHT22;32412;51.478;5.694;2022-07-18T01:30:41;15.30;99.90
46676;DHT22;32412;51.478;5.694;2022-07-18T01:33:06;15.30;99.90
46676;DHT22;32412;51.478;5.694;2022-07-18T01:35:32;15.40;99.90
46676;DHT22;32412;51.478;5.694;2022-07-18T01:38:00;15.40;99.90
46676;DHT22;32412;51.478;5.694;2022-07-18T01:40:26;15.40;99.90
46676;DHT22;32412;51.478;5.694;2022-07-18T01:42:53;15.40;99.90
46676;DHT22;32412;51.478;5.694;2022-07-18T01:45:19;15.40;99.90
46676;DHT22;32412;51.478;5.694;2022-07-18T01:47:45;15.30;99.90
46676;DHT22;32412;51.478;5.694;2022-07-18T01:50:12;15.30;99.90
46676;DHT22;32412;51.478;5.694;2022-07-18T01:52:38;15.30;99.90
46676;DHT22;32412;51.478;5.694;2022-07-18T01:55:06;15.30;99.90
46676;DHT22;32412;51.478;5.694;2022-07-18T01:57:32;15.30;99.90
46676;DHT22;32412;51.478;5.694;2022-07-18T01:59:58;15.20;99.90
46676;DHT22;32412;51.478;5.694;2022-07-18T02:02:24;15.20;99.90
46676;DHT22;32412;51.478;5.694;2022-07-18T02:04:49;15.20;99.90
46676;DHT22;32412;51.478;5.694;2022-07-18T02:07:39;15.20;99.90
46676;DHT22;32412;51.478;5.694;2022-07-18T02:10:08;15.10;99.90
46676;DHT22;32412;51.478;5.694;2022-07-18T02:12:34;15.10;99.90
46676;DHT22;32412;51.478;5.694;2022-07-18T02:15:00;15.00;99.90
46676;DHT22;32412;51.478;5.694;2022-07-18T02:17:26;15.00;99.90
46676;DHT22;32412;51.478;5.694;2022-07-18T02:19:52;15.00;99.90
46676;DHT22;32412;51.478;5.694;2022-07-18T02:22:17;15.00;99.90
46676;DHT22;32412;51.478;5.694;2022-07-18T02:24:43;14.90;99.90
46676;DHT22;32412;51.478;5.694;2022-07-18T02:27:10;14.80;99.90
46676;DHT22;32412;51.478;5.694;2022-07-18T02:29:37;14.80;99.90
46676;DHT22;32412;51.478;5.694;2022-07-18T02:32:03;14.80;99.90
46676;DHT22;32412;51.478;5.694;2022-07-18T02:34:29;14.80;99.90
46676;DHT22;32412;51.478;5.694;2022-07-18T02:36:55;14.80;99.90
46676;DHT22;32412;51.478;5.694;2022-07-18T02:39:20;14.80;99.90
46676;DHT22;32412;51.478;5.694;2022-07-18T02:41:47;14.80;99.90
46676;DHT22;32412;51.478;5.694;2022-07-18T02:44:12;14.70;99.90
46676;DHT22;32412;51.478;5.694;2022-07-18T02:46:38;14.70;99.90
46676;DHT22;32412;51.478;5.694;2022-07-18T02:49:03;14.70;99.90
46676;DHT22;32412;51.478;5.694;2022-07-18T02:51:29;14.60;99.90
46676;DHT22;32412;51.478;5.694;2022-07-18T02:53:55;14.70;99.90
46676;DHT22;32412;51.478;5.694;2022-07-18T02:56:21;14.70;99.90
46676;DHT22;32412;51.478;5.694;2022-07-18T02:58:46;14.70;99.90
46676;DHT22;32412;51.478;5.694;2022-07-18T03:01:12;14.60;99.90
46676;DHT22;32412;51.478;5.694;2022-07-18T03:03:38;14.50;99.90
46676;DHT22;32412;51.478;5.694;2022-07-18T03:06:04;14.50;99.90
46676;DHT22;32412;51.478;5.694;2022-07-18T03:08:30;14.50;99.90
46676;DHT22;32412;51.478;5.694;2022-07-18T03:10:55;14.50;99.90
46676;DHT22;32412;51.478;5.694;2022-07-18T03:13:21;14.50;99.90
46676;DHT22;32412;51.478;5.694;2022-07-18T03:15:47;14.40;99.90
46676;DHT22;32412;51.478;5.694;2022-07-18T03:18:12;14.40;99.90
46676;DHT22;32412;51.478;5.694;2022-07-18T03:20:38;14.30;99.90
46676;DHT22;32412;51.478;5.694;2022-07-18T03:23:05;14.30;99.90
46676;DHT22;32412;51.478;5.694;2022-07-18T03:25:31;14.30;99.90
46676;DHT22;32412;51.478;5.694;2022-07-18T03:27:57;14.30;99.90
46676;DHT22;32412;51.478;5.694;2022-07-18T03:30:22;14.30;99.90
46676;DHT22;32412;51.478;5.694;2022-07-18T03:32:48;14.30;99.90
46676;DHT22;32412;51.478;5.694;2022-07-18T03:35:14;14.40;99.90
46676;DHT22;32412;51.478;5.694;2022-07-18T03:37:40;14.40;99.90
46676;DHT22;32412;51.478;5.694;2022-07-18T03:40:06;14.30;99.90
46676;DHT22;32412;51.478;5.694;2022-07-18T03:42:32;14.30;99.90
46676;DHT22;32412;51.478;5.694;2022-07-18T03:44:59;14.20;99.90
46676;DHT22;32412;51.478;5.694;2022-07-18T03:47:24;14.20;99.90
46676;DHT22;32412;51.478;5.694;2022-07-18T03:49:50;14.10;99.90
46676;DHT22;32412;51.478;5.694;2022-07-18T03:52:15;14.10;99.90
46676;DHT22;32412;51.478;5.694;2022-07-18T03:54:41;14.00;99.90
46676;DHT22;32412;51.478;5.694;2022-07-18T03:57:07;14.10;99.90
46676;DHT22;32412;51.478;5.694;2022-07-18T03:59:32;14.10;99.90
46676;DHT22;32412;51.478;5.694;2022-07-18T04:01:58;14.10;99.90
46676;DHT22;32412;51.478;5.694;2022-07-18T04:04:24;14.10;99.90
46676;DHT22;32412;51.478;5.694;2022-07-18T04:06:50;14.10;99.90
46676;DHT22;32412;51.478;5.694;2022-07-18T04:09:16;14.20;99.90
46676;DHT22;32412;51.478;5.694;2022-07-18T04:11:41;14.20;99.90
46676;DHT22;32412;51.478;5.694;2022-07-18T04:14:07;14.20;99.90
46676;DHT22;32412;51.478;5.694;2022-07-18T04:16:33;14.30;99.90
46676;DHT22;32412;51.478;5.694;2022-07-18T04:18:58;14.20;99.90
46676;DHT22;32412;51.478;5.694;2022-07-18T04:21:24;14.30;99.90
46676;DHT22;32412;51.478;5.694;2022-07-18T04:23:50;14.30;99.90
46676;DHT22;32412;51.478;5.694;2022-07-18T04:26:16;14.40;99.90
46676;DHT22;32412;51.478;5.694;2022-07-18T04:28:41;14.40;99.90
46676;DHT22;32412;51.478;5.694;2022-07-18T04:31:07;14.50;99.90
46676;DHT22;32412;51.478;5.694;2022-07-18T04:33:33;14.60;99.90
46676;DHT22;32412;51.478;5.694;2022-07-18T04:35:59;14.70;99.90
46676;DHT22;32412;51.478;5.694;2022-07-18T04:38:25;14.70;99.90
46676;DHT22;32412;51.478;5.694;2022-07-18T04:40:51;14.80;99.90
46676;DHT22;32412;51.478;5.694;2022-07-18T04:43:16;14.90;99.90
46676;DHT22;32412;51.478;5.694;2022-07-18T04:45:42;14.90;99.90
46676;DHT22;32412;51.478;5.694;2022-07-18T04:48:07;15.00;99.90
46676;DHT22;32412;51.478;5.694;2022-07-18T04:50:33;15.10;99.90
46676;DHT22;32412;51.478;5.694;2022-07-18T04:52:59;15.20;99.90
46676;DHT22;32412;51.478;5.694;2022-07-18T04:55:25;15.30;99.90
46676;DHT22;32412;51.478;5.694;2022-07-18T04:57:52;15.40;99.90
46676;DHT22;32412;51.478;5.694;2022-07-18T05:00:20;15.50;99.90
46676;DHT22;32412;51.478;5.694;2022-07-18T05:02:48;15.60;99.90
46676;DHT22;32412;51.478;5.694;2022-07-18T05:05:16;15.70;99.90
46676;DHT22;32412;51.478;5.694;2022-07-18T05:07:43;15.80;99.90
46676;DHT22;32412;51.478;5.694;2022-07-18T05:10:10;15.90;99.90
46676;DHT22;32412;51.478;5.694;2022-07-18T05:12:37;16.00;99.90
46676;DHT22;32412;51.478;5.694;2022-07-18T05:15:09;16.00;99.90
46676;DHT22;32412;51.478;5.694;2022-07-18T05:17:39;16.10;99.90
46676;DHT22;32412;51.478;5.694;2022-07-18T05:20:06;16.20;99.90
46676;DHT22;32412;51.478;5.694;2022-07-18T05:22:33;16.40;99.90
46676;DHT22;32412;51.478;5.694;2022-07-18T05:24:59;16.60;99.90
46676;DHT22;32412;51.478;5.694;2022-07-18T05:27:25;16.80;99.90
46676;DHT22;32412;51.478;5.694;2022-07-18T05:29:51;16.90;99.90
46676;DHT22;32412;51.478;5.694;2022-07-18T05:32:16;17.00;99.90
46676;DHT22;32412;51.478;5.694;2022-07-18T05:34:42;17.20;99.90
46676;DHT22;32412;51.478;5.694;2022-07-18T05:37:08;17.30;99.90
46676;DHT22;32412;51.478;5.694;2022-07-18T05:39:33;17.50;99.90
46676;DHT22;32412;51.478;5.694;2022-07-18T05:42:01;17.60;99.90
46676;DHT22;32412;51.478;5.694;2022-07-18T05:44:27;17.80;99.90
46676;DHT22;32412;51.478;5.694;2022-07-18T05:46:52;18.00;99.90
46676;DHT22;32412;51.478;5.694;2022-07-18T05:49:18;18.10;99.90
46676;DHT22;32412;51.478;5.694;2022-07-18T05:51:44;18.20;99.90
46676;DHT22;32412;51.478;5.694;2022-07-18T05:54:10;18.30;99.90
46676;DHT22;32412;51.478;5.694;2022-07-18T05:56:36;18.40;99.90
46676;DHT22;32412;51.478;5.694;2022-07-18T05:59:02;18.40;99.90
46676;DHT22;32412;51.478;5.694;2022-07-18T06:01:27;18.40;99.90
46676;DHT22;32412;51.478;5.694;2022-07-18T06:03:53;18.60;99.90
46676;DHT22;32412;51.478;5.694;2022-07-18T06:06:18;18.60;99.90
46676;DHT22;32412;51.478;5.694;2022-07-18T06:08:45;18.70;99.90
46676;DHT22;32412;51.478;5.694;2022-07-18T06:11:11;18.80;99.90
46676;DHT22;32412;51.478;5.694;2022-07-18T06:13:38;19.00;99.90
46676;DHT22;32412;51.478;5.694;2022-07-18T06:16:05;19.10;99.90
46676;DHT22;32412;51.478;5.694;2022-07-18T06:18:32;19.20;99.90
46676;DHT22;32412;51.478;5.694;2022-07-18T06:21:01;19.40;99.90
46676;DHT22;32412;51.478;5.694;2022-07-18T06:23:26;19.50;99.90
46676;DHT22;32412;51.478;5.694;2022-07-18T06:25:52;19.70;99.90
46676;DHT22;32412;51.478;5.694;2022-07-18T06:28:18;20.00;99.90
46676;DHT22;32412;51.478;5.694;2022-07-18T06:30:46;20.20;99.90
46676;DHT22;32412;51.478;5.694;2022-07-18T06:33:11;20.40;99.90
46676;DHT22;32412;51.478;5.694;2022-07-18T06:35:39;20.50;99.90
46676;DHT22;32412;51.478;5.694;2022-07-18T06:38:05;20.60;99.90
46676;DHT22;32412;51.478;5.694;2022-07-18T06:40:31;20.80;99.90
46676;DHT22;32412;51.478;5.694;2022-07-18T06:42:56;20.90;99.90
46676;DHT22;32412;51.478;5.694;2022-07-18T06:45:22;21.10;99.90
46676;DHT22;32412;51.478;5.694;2022-07-18T06:47:48;21.30;99.90
46676;DHT22;32412;51.478;5.694;2022-07-18T06:50:14;21.50;99.90
46676;DHT22;32412;51.478;5.694;2022-07-18T06:52:41;21.70;99.90
46676;DHT22;32412;51.478;5.694;2022-07-18T06:55:08;21.70;99.90
46676;DHT22;32412;51.478;5.694;2022-07-18T06:57:35;21.80;99.90
46676;DHT22;32412;51.478;5.694;2022-07-18T07:00:00;22.00;99.90
46676;DHT22;32412;51.478;5.694;2022-07-18T07:02:26;22.10;99.90
46676;DHT22;32412;51.478;5.694;2022-07-18T07:04:52;22.20;99.90
46676;DHT22;32412;51.478;5.694;2022-07-18T07:07:18;22.30;99.80
46676;DHT22;32412;51.478;5.694;2022-07-18T07:09:44;22.40;99.60
46676;DHT22;32412;51.478;5.694;2022-07-18T07:12:09;22.50;99.80
46676;DHT22;32412;51.478;5.694;2022-07-18T07:14:36;22.50;99.50
46676;DHT22;32412;51.478;5.694;2022-07-18T07:17:03;22.70;99.40
46676;DHT22;32412;51.478;5.694;2022-07-18T07:19:28;22.70;99.40
46676;DHT22;32412;51.478;5.694;2022-07-18T07:21:55;22.80;99.50
46676;DHT22;32412;51.478;5.694;2022-07-18T07:24:21;23.00;99.40
46676;DHT22;32412;51.478;5.694;2022-07-18T07:26:47;23.10;99.50
46676;DHT22;32412;51.478;5.694;2022-07-18T07:29:14;23.30;99.40
46676;DHT22;32412;51.478;5.694;2022-07-18T07:31:42;23.50;99.00
46676;DHT22;32412;51.478;5.694;2022-07-18T07:34:09;23.80;98.80
46676;DHT22;32412;51.478;5.694;2022-07-18T07:36:35;23.80;98.10
46676;DHT22;32412;51.478;5.694;2022-07-18T07:39:01;23.90;98.30
46676;DHT22;32412;51.478;5.694;2022-07-18T07:41:27;24.00;98.00
46676;DHT22;32412;51.478;5.694;2022-07-18T07:43:52;24.20;97.90
46676;DHT22;32412;51.478;5.694;2022-07-18T07:46:18;24.40;97.70
46676;DHT22;32412;51.478;5.694;2022-07-18T07:48:44;24.40;97.70
46676;DHT22;32412;51.478;5.694;2022-07-18T07:51:12;24.70;96.80
46676;DHT22;32412;51.478;5.694;2022-07-18T07:53:38;24.90;97.10
46676;DHT22;32412;51.478;5.694;2022-07-18T07:56:03;25.00;96.70
46676;DHT22;32412;51.478;5.694;2022-07-18T07:58:29;25.20;96.20
46676;DHT22;32412;51.478;5.694;2022-07-18T08:00:55;25.40;95.80
46676;DHT22;32412;51.478;5.694;2022-07-18T08:03:20;25.40;95.90
46676;DHT22;32412;51.478;5.694;2022-07-18T08:05:50;25.70;95.70
46676;DHT22;32412;51.478;5.694;2022-07-18T08:08:17;25.90;95.60
46676;DHT22;32412;51.478;5.694;2022-07-18T08:10:46;26.10;95.40
46676;DHT22;32412;51.478;5.694;2022-07-18T08:13:13;26.30;94.80
46676;DHT22;32412;51.478;5.694;2022-07-18T08:15:39;26.40;95.00
46676;DHT22;32412;51.478;5.694;2022-07-18T08:18:07;26.50;94.70
46676;DHT22;32412;51.478;5.694;2022-07-18T08:20:33;26.60;94.60
46676;DHT22;32412;51.478;5.694;2022-07-18T08:23:05;26.90;94.50
46676;DHT22;32412;51.478;5.694;2022-07-18T08:25:33;27.00;94.00
46676;DHT22;32412;51.478;5.694;2022-07-18T08:28:00;27.10;94.00
46676;DHT22;32412;51.478;5.694;2022-07-18T08:30:28;27.20;94.30
46676;DHT22;32412;51.478;5.694;2022-07-18T08:32:55;27.20;94.50
46676;DHT22;32412;51.478;5.694;2022-07-18T08:35:21;27.40;94.80
46676;DHT22;32412;51.478;5.694;2022-07-18T08:37:46;27.50;94.10
46676;DHT22;32412;51.478;5.694;2022-07-18T08:40:12;27.60;94.20
46676;DHT22;32412;51.478;5.694;2022-07-18T08:42:40;27.70;93.90
46676;DHT22;32412;51.478;5.694;2022-07-18T08:45:06;27.90;93.20
46676;DHT22;32412;51.478;5.694;2022-07-18T08:47:33;28.00;93.80
46676;DHT22;32412;51.478;5.694;2022-07-18T08:49:59;28.10;93.30
46676;DHT22;32412;51.478;5.694;2022-07-18T08:52:27;28.20;93.20
46676;DHT22;32412;51.478;5.694;2022-07-18T08:55:01;28.30;92.10
46676;DHT22;32412;51.478;5.694;2022-07-18T08:57:27;28.70;92.30
46676;DHT22;32412;51.478;5.694;2022-07-18T08:59:55;28.90;91.50
46676;DHT22;32412;51.478;5.694;2022-07-18T09:02:27;29.10;90.90
46676;DHT22;32412;51.478;5.694;2022-07-18T09:04:53;29.20;90.30
46676;DHT22;32412;51.478;5.694;2022-07-18T09:07:35;29.40;90.40
46676;DHT22;32412;51.478;5.694;2022-07-18T09:10:04;29.60;90.40
46676;DHT22;32412;51.478;5.694;2022-07-18T09:12:32;29.50;89.60
46676;DHT22;32412;51.478;5.694;2022-07-18T09:15:08;29.50;89.90
46676;DHT22;32412;51.478;5.694;2022-07-18T09:17:36;29.70;89.50
46676;DHT22;32412;51.478;5.694;2022-07-18T09:20:05;29.90;90.20
46676;DHT22;32412;51.478;5.694;2022-07-18T09:22:40;30.10;89.80
46676;DHT22;32412;51.478;5.694;2022-07-18T09:25:16;30.40;89.00
46676;DHT22;32412;51.478;5.694;2022-07-18T09:27:53;30.50;88.20
46676;DHT22;32412;51.478;5.694;2022-07-18T09:30:32;30.90;88.30
46676;DHT22;32412;51.478;5.694;2022-07-18T09:35:32;31.40;87.70
46676;DHT22;32412;51.478;5.694;2022-07-18T09:38:02;31.60;86.90
46676;DHT22;32412;51.478;5.694;2022-07-18T09:40:32;31.90;86.40
46676;DHT22;32412;51.478;5.694;2022-07-18T09:43:19;32.20;86.80
46676;DHT22;32412;51.478;5.694;2022-07-18T09:45:55;32.40;85.40
46676;DHT22;32412;51.478;5.694;2022-07-18T09:48:26;32.80;84.70
46676;DHT22;32412;51.478;5.694;2022-07-18T09:53:45;33.60;84.50
46676;DHT22;32412;51.478;5.694;2022-07-18T09:56:24;33.70;83.80
46676;DHT22;32412;51.478;5.694;2022-07-18T09:58:52;34.00;82.30
46676;DHT22;32412;51.478;5.694;2022-07-18T10:01:27;34.10;83.10
46676;DHT22;32412;51.478;5.694;2022-07-18T10:03:58;34.40;82.70
46676;DHT22;32412;51.478;5.694;2022-07-18T10:06:27;34.60;82.10
46676;DHT22;32412;51.478;5.694;2022-07-18T10:08:53;35.10;82.80
46676;DHT22;32412;51.478;5.694;2022-07-18T10:11:25;35.70;81.60
46676;DHT22;32412;51.478;5.694;2022-07-18T10:13:56;36.00;80.50
46676;DHT22;32412;51.478;5.694;2022-07-18T10:16:22;36.40;80.90
46676;DHT22;32412;51.478;5.694;2022-07-18T10:18:56;36.50;80.20
46676;DHT22;32412;51.478;5.694;2022-07-18T10:21:25;36.90;79.60
46676;DHT22;32412;51.478;5.694;2022-07-18T10:23:55;37.10;78.30
46676;DHT22;32412;51.478;5.694;2022-07-18T10:26:25;37.80;78.10
46676;DHT22;32412;51.478;5.694;2022-07-18T10:31:31;38.60;77.00
46676;DHT22;32412;51.478;5.694;2022-07-18T10:34:26;39.20;76.70
46676;DHT22;32412;51.478;5.694;2022-07-18T10:39:52;39.70;75.20
46676;DHT22;32412;51.478;5.694;2022-07-18T10:42:20;39.60;74.10
46676;DHT22;32412;51.478;5.694;2022-07-18T10:44:46;39.50;74.00
46676;DHT22;32412;51.478;5.694;2022-07-18T10:47:13;39.50;73.70
46676;DHT22;32412;51.478;5.694;2022-07-18T10:57:46;39.00;72.70
46676;DHT22;32412;51.478;5.694;2022-07-18T11:00:35;39.00;72.20
46676;DHT22;32412;51.478;5.694;2022-07-18T11:03:04;39.30;71.60
46676;DHT22;32412;51.478;5.694;2022-07-18T11:05:51;38.80;72.10
46676;DHT22;32412;51.478;5.694;2022-07-18T11:08:19;38.70;72.40
46676;DHT22;32412;51.478;5.694;2022-07-18T11:21:25;39.40;71.10
46676;DHT22;32412;51.478;5.694;2022-07-18T11:23:53;39.90;68.60
46676;DHT22;32412;51.478;5.694;2022-07-18T11:26:22;40.30;69.20
46676;DHT22;32412;51.478;5.694;2022-07-18T11:28:50;40.90;68.40
46676;DHT22;32412;51.478;5.694;2022-07-18T11:31:21;41.40;68.00
46676;DHT22;32412;51.478;5.694;2022-07-18T11:33:48;41.50;67.00
46676;DHT22;32412;51.478;5.694;2022-07-18T11:36:21;41.80;66.20
46676;DHT22;32412;51.478;5.694;2022-07-18T11:38:54;41.60;66.00
46676;DHT22;32412;51.478;5.694;2022-07-18T11:41:24;41.80;66.60
46676;DHT22;32412;51.478;5.694;2022-07-18T11:43:51;41.60;65.70
46676;DHT22;32412;51.478;5.694;2022-07-18T11:46:19;41.60;66.00
46676;DHT22;32412;51.478;5.694;2022-07-18T11:48:47;41.80;65.50
46676;DHT22;32412;51.478;5.694;2022-07-18T11:51:18;41.80;65.30
46676;DHT22;32412;51.478;5.694;2022-07-18T11:53:52;41.80;64.50
46676;DHT22;32412;51.478;5.694;2022-07-18T11:56:20;42.30;64.80
46676;DHT22;32412;51.478;5.694;2022-07-18T11:58:47;42.00;64.30
46676;DHT22;32412;51.478;5.694;2022-07-18T12:01:17;42.10;63.60
46676;DHT22;32412;51.478;5.694;2022-07-18T12:03:47;42.50;63.60
46676;DHT22;32412;51.478;5.694;2022-07-18T12:06:18;42.80;62.40
46676;DHT22;32412;51.478;5.694;2022-07-18T12:08:46;42.90;62.90
46676;DHT22;32412;51.478;5.694;2022-07-18T12:11:30;42.90;61.40
46676;DHT22;32412;51.478;5.694;2022-07-18T12:13:58;43.40;61.80
46676;DHT22;32412;51.478;5.694;2022-07-18T12:18:52;43.10;61.60
46676;DHT22;32412;51.478;5.694;2022-07-18T12:21:18;43.10;62.30
46676;DHT22;32412;51.478;5.694;2022-07-18T12:23:44;42.90;61.80
46676;DHT22;32412;51.478;5.694;2022-07-18T12:26:24;42.60;62.10
46676;DHT22;32412;51.478;5.694;2022-07-18T12:29:06;42.30;62.10
46676;DHT22;32412;51.478;5.694;2022-07-18T12:31:54;42.60;61.20
46676;DHT22;32412;51.478;5.694;2022-07-18T12:34:20;42.80;61.30
46676;DHT22;32412;51.478;5.694;2022-07-18T12:36:56;42.80;61.70
46676;DHT22;32412;51.478;5.694;2022-07-18T12:39:30;42.60;61.30
46676;DHT22;32412;51.478;5.694;2022-07-18T12:41:57;43.00;60.40
46676;DHT22;32412;51.478;5.694;2022-07-18T12:44:25;43.20;60.30
46676;DHT22;32412;51.478;5.694;2022-07-18T12:46:50;43.30;60.10
46676;DHT22;32412;51.478;5.694;2022-07-18T12:49:16;42.80;60.20
46676;DHT22;32412;51.478;5.694;2022-07-18T12:51:42;42.80;60.70
46676;DHT22;32412;51.478;5.694;2022-07-18T12:54:07;43.20;60.40
46676;DHT22;32412;51.478;5.694;2022-07-18T12:56:34;43.30;61.10
46676;DHT22;32412;51.478;5.694;2022-07-18T12:59:00;42.80;60.10
46676;DHT22;32412;51.478;5.694;2022-07-18T13:01:26;42.90;60.80
46676;DHT22;32412;51.478;5.694;2022-07-18T13:03:52;42.80;61.30
46676;DHT22;32412;51.478;5.694;2022-07-18T13:06:17;42.60;61.10
46676;DHT22;32412;51.478;5.694;2022-07-18T13:08:43;42.40;60.90
46676;DHT22;32412;51.478;5.694;2022-07-18T13:11:09;42.20;60.70
46676;DHT22;32412;51.478;5.694;2022-07-18T13:13:35;42.60;60.30
46676;DHT22;32412;51.478;5.694;2022-07-18T13:16:01;42.90;60.30
46676;DHT22;32412;51.478;5.694;2022-07-18T13:18:27;42.40;59.80
46676;DHT22;32412;51.478;5.694;2022-07-18T13:20:52;42.00;59.80
46676;DHT22;32412;51.478;5.694;2022-07-18T13:23:18;41.00;59.80
46676;DHT22;32412;51.478;5.694;2022-07-18T13:25:44;40.10;59.90
46676;DHT22;32412;51.478;5.694;2022-07-18T13:28:10;39.20;60.20
46676;DHT22;32412;51.478;5.694;2022-07-18T13:30:36;38.70;60.60
46676;DHT22;32412;51.478;5.694;2022-07-18T13:33:04;37.40;60.80
46676;DHT22;32412;51.478;5.694;2022-07-18T13:35:30;36.90;62.50
46676;DHT22;32412;51.478;5.694;2022-07-18T13:37:55;36.00;61.80
46676;DHT22;32412;51.478;5.694;2022-07-18T13:40:21;35.70;62.90
46676;DHT22;32412;51.478;5.694;2022-07-18T13:42:47;35.50;63.60
46676;DHT22;32412;51.478;5.694;2022-07-18T13:45:13;35.00;62.80
46676;DHT22;32412;51.478;5.694;2022-07-18T13:47:42;34.70;64.40
46676;DHT22;32412;51.478;5.694;2022-07-18T13:50:09;34.60;63.50
46676;DHT22;32412;51.478;5.694;2022-07-18T13:52:36;34.40;63.10
46676;DHT22;32412;51.478;5.694;2022-07-18T13:55:01;34.30;63.40
46676;DHT22;32412;51.478;5.694;2022-07-18T13:57:27;34.00;64.20
46676;DHT22;32412;51.478;5.694;2022-07-18T13:59:53;33.80;63.70
46676;DHT22;32412;51.478;5.694;2022-07-18T14:02:19;33.70;64.10
46676;DHT22;32412;51.478;5.694;2022-07-18T14:04:45;33.50;63.20
46676;DHT22;32412;51.478;5.694;2022-07-18T14:07:11;33.50;63.70
46676;DHT22;32412;51.478;5.694;2022-07-18T14:09:38;33.70;64.00
46676;DHT22;32412;51.478;5.694;2022-07-18T14:12:04;34.20;63.40
46676;DHT22;32412;51.478;5.694;2022-07-18T14:14:33;34.70;63.40
46676;DHT22;32412;51.478;5.694;2022-07-18T14:16:59;34.90;63.50
46676;DHT22;32412;51.478;5.694;2022-07-18T14:19:25;34.90;63.10
46676;DHT22;32412;51.478;5.694;2022-07-18T14:21:51;34.80;63.30
46676;DHT22;32412;51.478;5.694;2022-07-18T14:24:17;34.70;63.10
46676;DHT22;32412;51.478;5.694;2022-07-18T14:26:42;34.30;62.50
46676;DHT22;32412;51.478;5.694;2022-07-18T14:29:08;33.80;62.50
46676;DHT22;32412;51.478;5.694;2022-07-18T14:31:34;33.60;62.80
46676;DHT22;32412;51.478;5.694;2022-07-18T14:33:59;33.50;63.10
46676;DHT22;32412;51.478;5.694;2022-07-18T14:36:25;33.40;62.00
46676;DHT22;32412;51.478;5.694;2022-07-18T14:38:50;33.30;62.60
46676;DHT22;32412;51.478;5.694;2022-07-18T14:41:16;33.60;63.70
46676;DHT22;32412;51.478;5.694;2022-07-18T14:43:42;33.80;63.20
46676;DHT22;32412;51.478;5.694;2022-07-18T14:46:07;33.80;62.80
46676;DHT22;32412;51.478;5.694;2022-07-18T14:48:33;33.80;63.30
46676;DHT22;32412;51.478;5.694;2022-07-18T14:50:59;33.80;63.10
46676;DHT22;32412;51.478;5.694;2022-07-18T14:53:24;34.20;62.90
46676;DHT22;32412;51.478;5.694;2022-07-18T14:55:50;34.20;62.60
46676;DHT22;32412;51.478;5.694;2022-07-18T14:58:15;34.10;63.30
46676;DHT22;32412;51.478;5.694;2022-07-18T15:00:41;33.90;63.70
46676;DHT22;32412;51.478;5.694;2022-07-18T15:03:07;33.80;64.00
46676;DHT22;32412;51.478;5.694;2022-07-18T15:05:33;33.60;63.30
46676;DHT22;32412;51.478;5.694;2022-07-18T15:08:00;33.50;63.10
46676;DHT22;32412;51.478;5.694;2022-07-18T15:10:26;33.50;61.50
46676;DHT22;32412;51.478;5.694;2022-07-18T15:12:53;33.50;63.00
46676;DHT22;32412;51.478;5.694;2022-07-18T15:15:21;33.40;61.80
46676;DHT22;32412;51.478;5.694;2022-07-18T15:17:51;33.30;61.90
46676;DHT22;32412;51.478;5.694;2022-07-18T15:20:40;33.10;62.20
46676;DHT22;32412;51.478;5.694;2022-07-18T15:23:12;33.10;62.70
46676;DHT22;32412;51.478;5.694;2022-07-18T15:25:47;33.20;63.10
46676;DHT22;32412;51.478;5.694;2022-07-18T15:28:17;33.20;63.00
46676;DHT22;32412;51.478;5.694;2022-07-18T15:30:43;33.20;62.90
46676;DHT22;32412;51.478;5.694;2022-07-18T15:33:08;33.20;63.30
46676;DHT22;32412;51.478;5.694;2022-07-18T15:35:34;33.00;62.70
46676;DHT22;32412;51.478;5.694;2022-07-18T15:38:00;33.00;62.80
46676;DHT22;32412;51.478;5.694;2022-07-18T15:40:25;33.00;62.10
46676;DHT22;32412;51.478;5.694;2022-07-18T15:42:51;33.10;62.80
46676;DHT22;32412;51.478;5.694;2022-07-18T15:45:17;33.10;63.00
46676;DHT22;32412;51.478;5.694;2022-07-18T15:48:07;33.20;62.90
46676;DHT22;32412;51.478;5.694;2022-07-18T15:50:33;33.20;63.00
46676;DHT22;32412;51.478;5.694;2022-07-18T15:52:58;33.20;63.00
46676;DHT22;32412;51.478;5.694;2022-07-18T15:55:24;33.20;63.20
46676;DHT22;32412;51.478;5.694;2022-07-18T15:57:49;33.10;63.30
46676;DHT22;32412;51.478;5.694;2022-07-18T16:00:15;33.10;63.20
46676;DHT22;32412;51.478;5.694;2022-07-18T16:02:41;33.10;62.70